TimePST,TemperatureF,Dew PointF,Humidity,Sea Level PressureIn,VisibilityMPH,Wind Direction,Wind SpeedMPH,Gust SpeedMPH,PrecipitationIn,Events,Conditions,WindDirDegrees,DateUTC
12:52 AM,50.0,24.1,36,30.02,-9999.0,NE,5.8,-,N/A,,Unknown,40,2012-11-06 08:52:00
1:52 AM,46.9,23.0,39,30.02,-9999.0,Calm,Calm,-,N/A,,Unknown,0,2012-11-06 09:52:00
2:52 AM,48.0,24.1,39,30.01,-9999.0,NNE,3.5,-,N/A,,Unknown,30,2012-11-06 10:52:00
3:52 AM,46.0,24.1,42,30.03,-9999.0,NE,3.5,-,N/A,,Unknown,50,2012-11-06 11:52:00
4:52 AM,45.0,24.1,44,30.04,-9999.0,NE,5.8,-,N/A,,Unknown,50,2012-11-06 12:52:00
5:52 AM,45.0,24.1,44,30.06,-9999.0,NE,8.1,-,N/A,,Unknown,50,2012-11-06 13:52:00
6:52 AM,45.0,26.1,48,30.09,-9999.0,NE,4.6,-,N/A,,Unknown,40,2012-11-06 14:52:00
7:52 AM,63.0,28.0,27,30.07,-9999.0,Calm,Calm,-,N/A,,Unknown,0,2012-11-06 15:52:00
8:52 AM,77.0,28.0,17,30.05,-9999.0,Calm,Calm,-,N/A,,Unknown,0,2012-11-06 16:52:00
9:52 AM,82.9,24.1,12,30.03,-9999.0,Calm,Calm,-,N/A,,Unknown,0,2012-11-06 17:52:00
10:52 AM,84.0,23.0,11,30.01,-9999.0,SW,6.9,-,N/A,,Unknown,220,2012-11-06 18:52:00
11:52 AM,84.9,21.9,10,29.98,-9999.0,WSW,5.8,-,N/A,,Unknown,250,2012-11-06 19:52:00
12:52 PM,84.0,24.1,11,29.96,-9999.0,SW,15.0,-,N/A,,Unknown,220,2012-11-06 20:52:00
1:52 PM,82.9,26.1,13,29.96,-9999.0,WSW,13.8,20.7,N/A,,Unknown,250,2012-11-06 21:52:00
2:52 PM,82.0,30.0,15,29.96,-9999.0,SW,13.8,17.3,N/A,,Unknown,230,2012-11-06 22:52:00
3:52 PM,78.1,33.1,19,29.97,-9999.0,SW,11.5,-,N/A,,Unknown,230,2012-11-06 23:52:00
4:52 PM,69.1,34.0,27,30.00,-9999.0,SSW,5.8,-,N/A,,Unknown,210,2012-11-07 00:52:00
5:52 PM,60.1,33.1,36,30.03,-9999.0,Calm,Calm,-,N/A,,Unknown,0,2012-11-07 01:52:00
6:52 PM,54.0,30.9,41,30.05,-9999.0,NE,4.6,-,N/A,,Unknown,40,2012-11-07 02:52:00
7:52 PM,51.1,30.0,44,30.04,-9999.0,NE,4.6,-,N/A,,Unknown,40,2012-11-07 03:52:00
8:52 PM,51.1,30.0,44,30.03,-9999.0,NE,5.8,-,N/A,,Unknown,40,2012-11-07 04:52:00
9:52 PM,48.0,28.9,48,30.02,-9999.0,ENE,6.9,-,N/A,,Unknown,60,2012-11-07 05:52:00
10:52 PM,46.0,28.9,51,30.02,-9999.0,ENE,9.2,-,N/A,,Unknown,60,2012-11-07 06:52:00
11:52 PM,46.0,28.9,51,30.01,-9999.0,NE,5.8,-,N/A,,Unknown,50,2012-11-07 07:52:00